Aeroporto :
LOGIN :

Iscrizione | Disclaimer

   EN    FR    IT 

 










Sommario :    VFR   VFR Marginale   IFR   IFR Intensivo   IFR Molto Intensivo
Visibilità : 
Base nubi : 
>= 8 km
>= 3000ft
5 / 8 km
1000 / 3000 ft
1500m / 5 km
500 / 1000 ft
800 / 1500m
200 / 500 ft
< 800m
< 200 ft
Simboli :   Temporali  Nebbia  Neve Forte  Precipitazioni Forti  Vento > 20 kt
SIGMETs :   Varie  Temporali  Ghiacco  Turbolenza  Onda orograficha  Ceneri Vulcaniche






- Altitudine del aeroporto : 50 ft
- Codice IATA : EDO


LTFD - Bal?kesir Körfez

ULTIMO METAR :
  • 282250Z 06006KT CAVOK 15/10 Q1013

METARs OBSOLETI :
  • 282150Z 08004KT 050V120 CAVOK 14/10 Q1013
  • 282050Z 10004KT 040V120 CAVOK 16/10 Q1013
  • 281950Z 03007KT CAVOK 16/11 Q1013
  • 281850Z 07004KT 040V110 CAVOK 17/13 Q1013
  • 281750Z 15004KT 9999 FEW035 19/13 Q1012

TAF TAF LTFD
Valido dal 28 a 21 ore il 29 a 06 ore UTC


281940Z 2821/2906 04005KT CAVOK



MetMap, La meteo Aeronautica in un colpo d'occhio ! - Copyright ORBIFLY Dicembre 2007 - Disclaimer

ORBIFLY MET'MAP TEAM :

Programmazione e sviluppo : Alexandra Zaïnal
Concezione : Baudouin d'Aumeries
Supporto tecnico e logistico : Manuel Goepfert
Aiuto : Marc-Olivier Méhu
Aiuto per la traduzione : Arnaldo La Scala




FONTI E CREDITI :

   NOAA